Time;durP1;ratioP1;P1;durP2;ratioP2;P2;SDS_P1;SDS_P2;PMS_P1;PMS_P2;Temp;Humidity;BMP_temperature;BMP_pressure;BME280_temperature;BME280_humidity;BME280_pressure;Samples;Min_cycle;Max_cycle;Signal;HPM_P1;HPM_P2
2023/03/20 00:01:55;;;;;;;15.75;5.45;;;;;;;;;;4970808;28;20034;-68
2023/03/20 00:04:21;;;;;;;28.35;6.70;;;;;;;;;;4992497;28;20490;-69
2023/03/20 00:06:47;;;;;;;20.02;5.78;;;;;;;;;;4994684;28;20064;-69
2023/03/20 00:09:12;;;;;;;21.70;6.00;;;;;;;;;;4991771;28;20221;-70
2023/03/20 00:11:43;;;;;;;24.08;6.72;;;;;;;;;;4986288;28;20037;-69
2023/03/20 00:14:12;;;;;;;20.95;6.22;;;;;;;;;;4993372;28;20425;-69
2023/03/20 00:16:44;;;;;;;21.45;6.85;;;;;;;;;;4973433;28;20056;-69
2023/03/20 00:19:29;;;;;;;25.85;7.07;;;;;;;;;;4989140;28;20034;-69
2023/03/20 00:21:57;;;;;;;17.75;6.72;;;;;;;;;;4973735;28;20163;-69
2023/03/20 00:24:23;;;;;;;21.77;7.57;;;;;;;;;;4994147;28;20050;-70
2023/03/20 00:26:49;;;;;;;29.73;7.35;;;;;;;;;;4970837;28;20151;-69
2023/03/20 00:29:25;;;;;;;23.75;7.07;;;;;;;;;;4972407;28;20047;-69
2023/03/20 00:31:51;;;;;;;24.00;7.55;;;;;;;;;;4997114;28;20452;-70
2023/03/20 00:34:18;;;;;;;20.10;7.20;;;;;;;;;;4994930;28;20131;-69
2023/03/20 00:36:43;;;;;;;26.58;6.35;;;;;;;;;;4995462;28;20045;-69
2023/03/20 00:39:08;;;;;;;25.35;7.75;;;;;;;;;;4995423;28;21799;-69
2023/03/20 00:41:37;;;;;;;27.98;7.22;;;;;;;;;;4989592;28;20034;-69
2023/03/20 00:44:08;;;;;;;21.23;6.25;;;;;;;;;;4992453;28;20034;-69
2023/03/20 00:46:35;;;;;;;22.77;6.55;;;;;;;;;;4995981;28;20049;-68
2023/03/20 00:49:00;;;;;;;20.52;5.97;;;;;;;;;;4995109;28;20045;-69
2023/03/20 00:51:26;;;;;;;26.90;5.80;;;;;;;;;;4995400;28;20033;-69
2023/03/20 00:53:53;;;;;;;18.25;4.88;;;;;;;;;;4996755;28;20509;-69
2023/03/20 00:56:24;;;;;;;17.42;4.47;;;;;;;;;;4982061;28;20064;-69
2023/03/20 00:58:49;;;;;;;25.43;5.47;;;;;;;;;;4971772;28;21938;-69
2023/03/20 01:01:15;;;;;;;24.33;5.38;;;;;;;;;;4995659;28;20037;-69
2023/03/20 01:03:40;;;;;;;27.63;5.07;;;;;;;;;;4995406;28;20224;-69
2023/03/20 01:06:05;;;;;;;19.85;5.10;;;;;;;;;;4985962;28;20510;-70
2023/03/20 01:08:31;;;;;;;17.50;4.22;;;;;;;;;;4978001;28;20070;-68
2023/03/20 01:10:57;;;;;;;18.85;4.60;;;;;;;;;;4993851;28;20490;-68
2023/03/20 01:13:24;;;;;;;18.17;4.80;;;;;;;;;;4987677;28;20433;-69
2023/03/20 01:15:50;;;;;;;19.92;4.07;;;;;;;;;;4994665;28;20044;-69
2023/03/20 01:18:16;;;;;;;21.17;5.30;;;;;;;;;;4995376;28;20127;-69
2023/03/20 01:20:42;;;;;;;41.97;6.15;;;;;;;;;;4994604;28;22625;-69
2023/03/20 01:23:07;;;;;;;18.98;4.78;;;;;;;;;;4988598;28;20038;-70
2023/03/20 01:25:32;;;;;;;26.02;4.50;;;;;;;;;;4996476;28;20674;-69
2023/03/20 01:27:58;;;;;;;20.25;4.85;;;;;;;;;;4994521;28;20047;-69
2023/03/20 01:30:24;;;;;;;20.92;4.28;;;;;;;;;;4982004;28;20120;-69
2023/03/20 01:32:50;;;;;;;19.55;4.97;;;;;;;;;;4995163;28;20544;-69
2023/03/20 01:35:22;;;;;;;21.30;4.72;;;;;;;;;;4995404;28;20032;-69
2023/03/20 01:37:48;;;;;;;32.38;5.65;;;;;;;;;;4977337;28;20057;-69
2023/03/20 01:40:16;;;;;;;21.35;4.80;;;;;;;;;;4993691;28;20044;-69
2023/03/20 01:42:41;;;;;;;21.52;4.95;;;;;;;;;;4979632;28;20166;-69
2023/03/20 01:45:18;;;;;;;23.77;4.85;;;;;;;;;;4977972;28;20038;-70
2023/03/20 01:47:46;;;;;;;30.48;5.20;;;;;;;;;;4991405;28;20042;-69
2023/03/20 01:50:25;;;;;;;21.00;5.20;;;;;;;;;;4994232;28;20049;-69
2023/03/20 01:52:53;;;;;;;25.10;4.85;;;;;;;;;;4994570;28;20146;-69
2023/03/20 01:55:20;;;;;;;22.35;5.15;;;;;;;;;;4994876;28;20252;-68
2023/03/20 01:57:46;;;;;;;23.45;4.97;;;;;;;;;;4995781;28;20042;-69
2023/03/20 02:00:14;;;;;;;26.95;4.55;;;;;;;;;;4986615;28;20037;-69
2023/03/20 02:02:39;;;;;;;21.58;5.18;;;;;;;;;;4990997;28;20168;-69
2023/03/20 02:05:07;;;;;;;18.60;4.45;;;;;;;;;;4992771;28;20046;-70
2023/03/20 02:07:33;;;;;;;24.13;4.57;;;;;;;;;;4991882;28;20454;-69
2023/03/20 02:09:59;;;;;;;17.20;3.80;;;;;;;;;;4992718;28;20038;-69
2023/03/20 02:12:25;;;;;;;16.85;3.63;;;;;;;;;;4992929;28;20037;-70
2023/03/20 02:14:51;;;;;;;16.20;4.97;;;;;;;;;;5007713;28;20127;-69
2023/03/20 02:17:17;;;;;;;14.43;4.30;;;;;;;;;;4993969;28;20099;-69
2023/03/20 02:19:55;;;;;;;13.93;3.75;;;;;;;;;;4994139;28;20033;-69
2023/03/20 02:22:29;;;;;;;21.40;4.95;;;;;;;;;;4994736;28;20033;-68
2023/03/20 02:25:14;;;;;;;13.25;4.30;;;;;;;;;;4974970;28;20037;-69
2023/03/20 02:27:51;;;;;;;19.73;4.95;;;;;;;;;;4990220;28;20039;-68
2023/03/20 02:30:32;;;;;;;13.73;3.95;;;;;;;;;;4994048;28;20191;-68
2023/03/20 02:33:03;;;;;;;17.08;4.22;;;;;;;;;;4986368;28;20083;-69
2023/03/20 02:35:41;;;;;;;15.13;4.63;;;;;;;;;;4994348;28;20034;-69
2023/03/20 02:38:25;;;;;;;17.13;4.07;;;;;;;;;;4963837;28;20053;-69
2023/03/20 02:40:58;;;;;;;15.40;3.85;;;;;;;;;;4993063;28;20041;-70
2023/03/20 02:43:42;;;;;;;17.67;4.07;;;;;;;;;;4994063;28;20037;-69
2023/03/20 02:46:07;;;;;;;13.02;4.20;;;;;;;;;;4994340;28;20068;-70
2023/03/20 02:48:44;;;;;;;13.00;3.58;;;;;;;;;;5005106;28;20064;-69
2023/03/20 02:51:13;;;;;;;15.77;4.07;;;;;;;;;;4986377;28;20041;-69
2023/03/20 02:53:58;;;;;;;19.90;4.50;;;;;;;;;;4973316;28;20095;-69
2023/03/20 02:56:42;;;;;;;15.20;4.95;;;;;;;;;;4993532;28;20041;-68
2023/03/20 02:59:26;;;;;;;17.70;4.80;;;;;;;;;;4981748;28;22126;-68
2023/03/20 03:01:54;;;;;;;13.38;5.03;;;;;;;;;;4992891;28;20045;-69
2023/03/20 03:04:25;;;;;;;23.88;5.50;;;;;;;;;;4979258;28;20130;-69
2023/03/20 03:06:54;;;;;;;16.45;6.22;;;;;;;;;;4992050;28;20083;-68
2023/03/20 03:09:24;;;;;;;25.27;8.40;;;;;;;;;;4979605;28;20041;-68
2023/03/20 03:11:56;;;;;;;24.45;8.32;;;;;;;;;;4971082;28;20521;-68
2023/03/20 03:14:36;;;;;;;18.88;8.73;;;;;;;;;;4992970;28;20053;-69
2023/03/20 03:17:03;;;;;;;27.13;10.75;;;;;;;;;;4991320;28;20041;-68
2023/03/20 03:19:33;;;;;;;31.15;12.43;;;;;;;;;;4993746;28;21801;-69
2023/03/20 03:21:59;;;;;;;27.13;12.98;;;;;;;;;;4992843;28;20049;-68
2023/03/20 03:24:26;;;;;;;41.05;14.68;;;;;;;;;;4984708;28;20037;-69
2023/03/20 03:26:52;;;;;;;37.85;15.20;;;;;;;;;;4994174;28;22060;-69
2023/03/20 03:29:18;;;;;;;41.33;16.95;;;;;;;;;;4993106;28;20037;-63
2023/03/20 03:31:44;;;;;;;38.28;16.52;;;;;;;;;;4985809;28;20237;-65
2023/03/20 03:34:14;;;;;;;48.33;19.08;;;;;;;;;;4992208;28;20080;-63
2023/03/20 03:36:40;;;;;;;44.80;21.08;;;;;;;;;;4993323;28;20033;-64
2023/03/20 03:39:11;;;;;;;47.50;19.63;;;;;;;;;;4979466;28;20142;-65
2023/03/20 03:41:55;;;;;;;46.10;17.93;;;;;;;;;;4977901;28;20384;-63
2023/03/20 03:44:32;;;;;;;40.38;17.08;;;;;;;;;;4991555;28;21938;-64
2023/03/20 03:47:11;;;;;;;30.73;14.52;;;;;;;;;;4977545;28;20080;-65
2023/03/20 03:49:40;;;;;;;30.85;12.25;;;;;;;;;;4994151;28;20037;-64
2023/03/20 03:52:08;;;;;;;28.88;12.10;;;;;;;;;;4973099;28;20076;-65
2023/03/20 03:54:40;;;;;;;31.98;13.40;;;;;;;;;;4992085;28;20037;-64
2023/03/20 03:57:06;;;;;;;24.90;11.80;;;;;;;;;;4993113;28;20041;-65
2023/03/20 03:59:35;;;;;;;29.17;12.60;;;;;;;;;;4993042;28;21091;-65
2023/03/20 04:02:02;;;;;;;25.52;11.68;;;;;;;;;;4976891;28;20346;-64
2023/03/20 04:04:29;;;;;;;29.08;10.38;;;;;;;;;;4992066;28;20030;-64
2023/03/20 04:06:54;;;;;;;21.65;9.63;;;;;;;;;;4990481;28;20041;-64
2023/03/20 04:09:19;;;;;;;23.40;9.60;;;;;;;;;;4991481;28;20042;-64
2023/03/20 04:11:48;;;;;;;27.35;11.40;;;;;;;;;;4985745;28;20046;-65
2023/03/20 04:14:13;;;;;;;28.05;11.10;;;;;;;;;;4993967;28;20804;-65
2023/03/20 04:16:38;;;;;;;26.80;12.70;;;;;;;;;;4968970;28;20029;-64
2023/03/20 04:19:04;;;;;;;32.70;13.98;;;;;;;;;;4972665;28;20037;-64
2023/03/20 04:21:29;;;;;;;38.10;13.73;;;;;;;;;;4993249;28;20422;-65
2023/03/20 04:23:55;;;;;;;30.55;14.50;;;;;;;;;;4989033;28;20073;-65
2023/03/20 04:26:20;;;;;;;29.25;14.30;;;;;;;;;;4992704;28;20065;-65
2023/03/20 04:28:45;;;;;;;33.75;14.43;;;;;;;;;;4983461;28;20653;-65
2023/03/20 04:31:11;;;;;;;33.13;15.50;;;;;;;;;;4990555;28;20042;-64
2023/03/20 04:33:38;;;;;;;41.75;14.90;;;;;;;;;;4991661;28;20047;-65
2023/03/20 04:36:06;;;;;;;36.03;15.25;;;;;;;;;;4979012;28;20047;-65
2023/03/20 04:38:31;;;;;;;31.60;14.32;;;;;;;;;;4992459;28;20376;-64
2023/03/20 04:40:57;;;;;;;33.78;15.27;;;;;;;;;;4995703;28;20143;-65
2023/03/20 04:43:24;;;;;;;32.28;13.95;;;;;;;;;;4973165;28;20053;-65
2023/03/20 04:45:52;;;;;;;34.53;14.57;;;;;;;;;;4993358;28;20190;-65
2023/03/20 04:48:17;;;;;;;31.08;13.40;;;;;;;;;;4992341;28;20066;-64
2023/03/20 04:50:47;;;;;;;30.50;12.57;;;;;;;;;;4992534;28;20299;-64
2023/03/20 04:53:12;;;;;;;29.08;11.93;;;;;;;;;;4990306;28;20048;-65
2023/03/20 04:55:40;;;;;;;29.42;12.63;;;;;;;;;;4978044;28;20046;-65
2023/03/20 04:58:05;;;;;;;28.60;12.05;;;;;;;;;;4979102;28;21839;-65
2023/03/20 05:00:31;;;;;;;29.20;12.50;;;;;;;;;;4994371;28;20710;-65
2023/03/20 05:02:56;;;;;;;23.45;11.80;;;;;;;;;;4995471;28;20628;-65
2023/03/20 05:05:22;;;;;;;31.70;13.27;;;;;;;;;;4995085;28;20354;-64
2023/03/20 05:07:47;;;;;;;25.80;12.18;;;;;;;;;;4992959;28;21437;-64
2023/03/20 05:10:13;;;;;;;33.00;13.20;;;;;;;;;;4993732;28;20034;-64
2023/03/20 05:12:38;;;;;;;32.70;13.20;;;;;;;;;;4992781;28;20048;-65
2023/03/20 05:15:03;;;;;;;33.67;13.93;;;;;;;;;;4994396;28;20512;-65
2023/03/20 05:17:29;;;;;;;28.35;13.15;;;;;;;;;;4993017;28;20041;-65
2023/03/20 05:19:54;;;;;;;28.50;12.32;;;;;;;;;;4993648;28;20111;-64
2023/03/20 05:22:19;;;;;;;32.20;14.38;;;;;;;;;;4995540;28;20096;-64
2023/03/20 05:24:47;;;;;;;29.00;12.75;;;;;;;;;;4993580;28;20067;-65
2023/03/20 05:27:12;;;;;;;33.70;12.85;;;;;;;;;;4993750;28;20578;-64
2023/03/20 05:29:39;;;;;;;27.95;12.40;;;;;;;;;;4995656;28;20126;-64
2023/03/20 05:32:05;;;;;;;32.88;12.35;;;;;;;;;;4995532;28;20048;-64
2023/03/20 05:34:30;;;;;;;29.83;12.50;;;;;;;;;;4996032;28;20041;-64
2023/03/20 05:36:55;;;;;;;28.23;11.88;;;;;;;;;;4993410;28;20600;-64
2023/03/20 05:39:21;;;;;;;27.05;11.27;;;;;;;;;;4978008;28;20116;-64
2023/03/20 05:41:49;;;;;;;36.10;12.38;;;;;;;;;;4980336;28;20049;-64
2023/03/20 05:44:14;;;;;;;29.10;12.43;;;;;;;;;;4995569;28;20789;-64
2023/03/20 05:46:39;;;;;;;35.08;12.10;;;;;;;;;;4987662;28;20050;-64
2023/03/20 05:49:05;;;;;;;34.30;13.25;;;;;;;;;;4982946;28;20037;-66
2023/03/20 05:51:30;;;;;;;29.13;11.88;;;;;;;;;;4993907;28;20060;-66
2023/03/20 05:53:55;;;;;;;36.60;12.52;;;;;;;;;;4994405;28;20474;-63
2023/03/20 05:56:21;;;;;;;33.45;12.00;;;;;;;;;;4981832;28;20041;-64
2023/03/20 05:58:46;;;;;;;29.77;12.15;;;;;;;;;;4994339;28;20048;-64
2023/03/20 06:01:15;;;;;;;34.50;13.82;;;;;;;;;;4994199;28;20041;-65
2023/03/20 06:03:42;;;;;;;33.08;12.65;;;;;;;;;;4991258;28;20052;-64
2023/03/20 06:06:10;;;;;;;33.72;12.68;;;;;;;;;;4994358;28;20697;-65
2023/03/20 06:08:35;;;;;;;33.10;12.25;;;;;;;;;;4995157;28;20617;-64
2023/03/20 06:11:01;;;;;;;31.27;11.73;;;;;;;;;;4993126;28;20041;-66
2023/03/20 06:13:26;;;;;;;32.67;12.68;;;;;;;;;;4989371;28;20098;-65
2023/03/20 06:15:54;;;;;;;30.30;11.77;;;;;;;;;;4995182;28;20042;-66
2023/03/20 06:18:19;;;;;;;38.95;12.90;;;;;;;;;;4978919;28;20114;-64
2023/03/20 06:20:44;;;;;;;30.50;12.18;;;;;;;;;;4979951;28;20483;-65
2023/03/20 06:23:10;;;;;;;33.85;12.40;;;;;;;;;;4995217;28;20041;-65
2023/03/20 06:25:37;;;;;;;35.67;11.18;;;;;;;;;;4977606;28;20683;-65
2023/03/20 06:28:02;;;;;;;29.05;11.15;;;;;;;;;;4992290;28;20067;-64
2023/03/20 06:30:27;;;;;;;34.63;11.65;;;;;;;;;;4994602;28;20039;-66
2023/03/20 06:32:53;;;;;;;26.08;10.50;;;;;;;;;;4978603;28;20392;-64
2023/03/20 06:35:18;;;;;;;28.70;10.18;;;;;;;;;;4994931;28;20041;-65
2023/03/20 06:37:43;;;;;;;25.83;9.10;;;;;;;;;;4987660;28;20156;-64
2023/03/20 06:40:09;;;;;;;32.50;9.77;;;;;;;;;;4977787;28;20037;-65
2023/03/20 06:42:34;;;;;;;25.90;9.38;;;;;;;;;;4995996;28;20491;-64
2023/03/20 06:45:02;;;;;;;29.83;8.32;;;;;;;;;;4969620;28;20034;-64
2023/03/20 06:47:29;;;;;;;26.08;8.05;;;;;;;;;;4984559;28;20201;-64
2023/03/20 06:49:55;;;;;;;27.85;9.27;;;;;;;;;;4986044;28;20134;-64
2023/03/20 06:52:24;;;;;;;27.98;7.60;;;;;;;;;;4970122;28;20169;-65
2023/03/20 06:54:50;;;;;;;30.13;8.23;;;;;;;;;;4984446;28;20122;-64
2023/03/20 06:57:17;;;;;;;29.08;7.97;;;;;;;;;;4969812;28;21504;-64
2023/03/20 06:59:42;;;;;;;33.53;8.48;;;;;;;;;;4969471;28;20408;-65
2023/03/20 07:02:08;;;;;;;30.30;8.73;;;;;;;;;;4969863;28;20065;-66
2023/03/20 07:04:34;;;;;;;34.63;7.47;;;;;;;;;;4969019;28;20069;-64
2023/03/20 07:06:59;;;;;;;27.40;6.70;;;;;;;;;;4969626;28;20258;-64
2023/03/20 07:09:26;;;;;;;29.83;7.05;;;;;;;;;;4967608;28;20066;-64
2023/03/20 07:11:53;;;;;;;24.90;6.50;;;;;;;;;;4971210;28;20046;-65
2023/03/20 07:14:18;;;;;;;25.42;6.10;;;;;;;;;;4970312;28;20069;-64
2023/03/20 07:16:44;;;;;;;27.95;6.30;;;;;;;;;;4968448;28;20038;-64
2023/03/20 07:19:12;;;;;;;33.53;6.78;;;;;;;;;;4969744;28;20120;-65
2023/03/20 07:21:37;;;;;;;31.67;6.20;;;;;;;;;;4969352;28;20042;-65
2023/03/20 07:24:03;;;;;;;26.90;6.07;;;;;;;;;;4962261;28;20145;-64
2023/03/20 07:26:30;;;;;;;30.70;6.25;;;;;;;;;;4983807;28;20084;-65
2023/03/20 07:28:55;;;;;;;21.58;5.50;;;;;;;;;;4970506;28;20151;-65
2023/03/20 07:31:22;;;;;;;35.53;6.93;;;;;;;;;;4968537;28;20054;-65
2023/03/20 07:33:48;;;;;;;26.30;6.47;;;;;;;;;;4970860;28;20538;-65
2023/03/20 07:36:14;;;;;;;35.40;6.47;;;;;;;;;;4985271;28;20081;-64
2023/03/20 07:38:39;;;;;;;31.88;5.85;;;;;;;;;;4969219;28;20448;-66
2023/03/20 07:41:05;;;;;;;33.88;6.88;;;;;;;;;;4970307;28;20046;-65
2023/03/20 07:43:32;;;;;;;31.83;6.40;;;;;;;;;;4976968;28;20136;-64
2023/03/20 07:46:01;;;;;;;31.42;6.38;;;;;;;;;;4996806;28;20050;-65
2023/03/20 07:48:26;;;;;;;32.38;6.60;;;;;;;;;;4989615;28;20087;-63
2023/03/20 07:50:51;;;;;;;33.30;6.70;;;;;;;;;;4997673;28;20037;-65
2023/03/20 07:53:19;;;;;;;26.30;6.03;;;;;;;;;;4993043;28;20047;-63
2023/03/20 07:55:44;;;;;;;31.27;6.00;;;;;;;;;;5010263;28;20444;-64
2023/03/20 07:58:09;;;;;;;36.60;6.85;;;;;;;;;;4993327;28;20063;-64
2023/03/20 08:00:35;;;;;;;36.80;7.45;;;;;;;;;;4995832;28;20498;-65
2023/03/20 08:03:00;;;;;;;32.35;6.20;;;;;;;;;;4995050;28;20084;-65
2023/03/20 08:05:28;;;;;;;31.30;7.20;;;;;;;;;;4981047;28;22379;-65
2023/03/20 08:07:53;;;;;;;37.80;7.93;;;;;;;;;;4994496;28;20038;-65
2023/03/20 08:10:18;;;;;;;37.88;7.50;;;;;;;;;;4983343;28;20205;-65
2023/03/20 08:12:44;;;;;;;33.22;7.63;;;;;;;;;;4994536;28;20156;-66
2023/03/20 08:15:09;;;;;;;31.70;8.07;;;;;;;;;;4980220;28;20120;-64
2023/03/20 08:17:35;;;;;;;42.65;7.43;;;;;;;;;;4994023;28;20049;-66
2023/03/20 08:20:00;;;;;;;35.10;7.80;;;;;;;;;;4995099;28;20034;-65
2023/03/20 08:22:25;;;;;;;33.63;7.65;;;;;;;;;;4982164;28;20042;-66
2023/03/20 08:24:51;;;;;;;33.75;7.18;;;;;;;;;;4996359;28;20041;-65
2023/03/20 08:27:16;;;;;;;39.55;7.43;;;;;;;;;;4981851;28;20054;-65
2023/03/20 08:29:41;;;;;;;34.22;6.75;;;;;;;;;;4995859;28;20457;-65
2023/03/20 08:32:06;;;;;;;33.33;7.97;;;;;;;;;;4994837;28;20274;-65
2023/03/20 08:34:32;;;;;;;34.70;7.50;;;;;;;;;;4995522;28;20499;-65
2023/03/20 08:36:57;;;;;;;30.85;6.45;;;;;;;;;;4996808;28;20222;-66
2023/03/20 08:39:23;;;;;;;32.88;7.60;;;;;;;;;;4997791;28;20041;-64
2023/03/20 08:41:48;;;;;;;30.55;6.05;;;;;;;;;;5012983;28;21887;-65
2023/03/20 08:44:13;;;;;;;37.13;6.30;;;;;;;;;;4995190;28;20054;-64
2023/03/20 08:46:40;;;;;;;39.78;6.13;;;;;;;;;;4993101;28;20202;-64
2023/03/20 08:49:06;;;;;;;29.35;6.13;;;;;;;;;;4978990;28;20042;-66
2023/03/20 08:51:32;;;;;;;29.33;6.55;;;;;;;;;;4999684;28;20053;-65
2023/03/20 08:53:57;;;;;;;22.00;5.43;;;;;;;;;;4970515;28;20037;-64
2023/03/20 08:56:22;;;;;;;30.60;5.82;;;;;;;;;;5000392;28;20041;-65
2023/03/20 08:58:52;;;;;;;33.10;5.80;;;;;;;;;;4978249;28;20042;-65
2023/03/20 09:01:18;;;;;;;36.83;6.18;;;;;;;;;;4999358;28;20441;-64
2023/03/20 09:03:43;;;;;;;37.47;6.25;;;;;;;;;;4999703;28;20044;-64
2023/03/20 09:06:09;;;;;;;29.67;6.35;;;;;;;;;;4998588;28;20540;-64
2023/03/20 09:08:37;;;;;;;34.83;6.65;;;;;;;;;;4991589;28;20069;-64
2023/03/20 09:11:03;;;;;;;33.03;6.32;;;;;;;;;;4998968;28;20125;-65
2023/03/20 09:13:28;;;;;;;32.53;5.93;;;;;;;;;;4998648;28;20532;-64
2023/03/20 09:15:54;;;;;;;29.42;6.55;;;;;;;;;;4991959;28;20037;-63
2023/03/20 09:18:19;;;;;;;36.92;7.13;;;;;;;;;;5000434;28;20048;-64
2023/03/20 09:20:47;;;;;;;29.13;7.05;;;;;;;;;;4989291;28;20041;-63
2023/03/20 09:23:15;;;;;;;36.35;7.43;;;;;;;;;;4974371;28;20708;-64
2023/03/20 09:25:40;;;;;;;30.98;8.05;;;;;;;;;;5014161;28;20394;-64
2023/03/20 09:28:08;;;;;;;45.60;9.77;;;;;;;;;;4998570;28;21170;-64
2023/03/20 09:30:35;;;;;;;27.25;7.85;;;;;;;;;;4985767;28;20609;-63
2023/03/20 09:33:00;;;;;;;36.42;8.88;;;;;;;;;;4997228;28;20034;-70
2023/03/20 09:35:31;;;;;;;34.88;9.38;;;;;;;;;;4980479;28;20037;-71
2023/03/20 09:37:58;;;;;;;43.65;9.23;;;;;;;;;;4998721;28;20113;-72
2023/03/20 09:40:27;;;;;;;24.13;8.32;;;;;;;;;;4997703;28;20862;-70
2023/03/20 09:42:52;;;;;;;37.25;8.73;;;;;;;;;;4997115;28;20045;-71
2023/03/20 09:45:18;;;;;;;33.05;9.45;;;;;;;;;;4995831;28;20526;-70
2023/03/20 09:47:52;;;;;;;32.35;9.52;;;;;;;;;;4998769;28;20054;-71
2023/03/20 09:50:30;;;;;;;28.55;10.05;;;;;;;;;;4999293;28;21163;-72
2023/03/20 09:53:08;;;;;;;26.55;8.90;;;;;;;;;;4985849;28;20041;-73
2023/03/20 09:55:37;;;;;;;30.23;8.55;;;;;;;;;;4998696;28;20941;-72
2023/03/20 09:58:07;;;;;;;29.75;9.23;;;;;;;;;;4997567;28;20700;-71
2023/03/20 10:00:33;;;;;;;28.45;10.10;;;;;;;;;;4996853;28;20121;-70
2023/03/20 10:03:00;;;;;;;35.88;11.98;;;;;;;;;;4997727;28;20554;-71
2023/03/20 10:05:27;;;;;;;35.25;12.20;;;;;;;;;;4997725;28;20045;-72
2023/03/20 10:07:56;;;;;;;37.72;13.20;;;;;;;;;;4998857;28;20041;-68
2023/03/20 10:10:40;;;;;;;39.53;13.18;;;;;;;;;;4968833;28;20083;-72
2023/03/20 10:13:15;;;;;;;37.65;13.88;;;;;;;;;;4986778;28;20232;-71
2023/03/20 10:15:51;;;;;;;35.90;13.65;;;;;;;;;;4998736;28;20495;-72
2023/03/20 10:18:16;;;;;;;32.72;14.07;;;;;;;;;;4985257;28;20087;-72
2023/03/20 10:20:47;;;;;;;37.50;14.50;;;;;;;;;;4999260;28;20084;-71
2023/03/20 10:23:18;;;;;;;34.60;14.68;;;;;;;;;;4997069;28;20041;-71
2023/03/20 10:25:55;;;;;;;42.97;15.93;;;;;;;;;;4985357;28;20096;-72
2023/03/20 10:28:23;;;;;;;34.45;16.15;;;;;;;;;;4997420;28;20050;-70
2023/03/20 10:31:07;;;;;;;36.92;17.00;;;;;;;;;;4997020;28;20120;-70
2023/03/20 10:33:35;;;;;;;35.95;18.08;;;;;;;;;;4996518;28;20079;-70
2023/03/20 10:36:03;;;;;;;35.22;17.48;;;;;;;;;;4996771;28;20025;-70
2023/03/20 10:38:28;;;;;;;33.50;17.38;;;;;;;;;;4997468;28;20033;-71
2023/03/20 10:40:56;;;;;;;38.03;18.65;;;;;;;;;;4980486;28;20064;-70
2023/03/20 10:43:29;;;;;;;34.90;18.58;;;;;;;;;;4994805;28;20042;-71
2023/03/20 10:46:01;;;;;;;38.22;19.30;;;;;;;;;;4995748;28;20049;-71
2023/03/20 10:48:32;;;;;;;36.35;19.63;;;;;;;;;;4996189;28;20033;-71
2023/03/20 10:51:01;;;;;;;30.98;17.90;;;;;;;;;;4971903;28;20033;-70
2023/03/20 10:53:55;;;;;;;33.33;20.10;;;;;;;;;;4970465;28;20092;-71
2023/03/20 10:56:35;;;;;;;46.00;20.80;;;;;;;;;;4996288;28;20931;-72
2023/03/20 10:59:03;;;;;;;37.15;20.10;;;;;;;;;;4993952;28;20040;-72
2023/03/20 11:01:28;;;;;;;41.40;21.23;;;;;;;;;;4994418;28;20041;-72
2023/03/20 11:03:56;;;;;;;40.92;20.83;;;;;;;;;;4995509;28;20108;-71
2023/03/20 11:06:24;;;;;;;49.22;22.40;;;;;;;;;;4938547;28;20061;-65
2023/03/20 11:08:51;;;;;;;42.78;21.40;;;;;;;;;;4985648;28;20159;-63
2023/03/20 11:11:26;;;;;;;44.63;21.95;;;;;;;;;;4993487;28;20041;-64
2023/03/20 11:13:52;;;;;;;36.97;20.65;;;;;;;;;;4982391;28;20426;-64
2023/03/20 11:16:19;;;;;;;42.40;20.55;;;;;;;;;;4991839;28;20056;-63
2023/03/20 11:18:45;;;;;;;42.17;20.88;;;;;;;;;;4993265;28;20526;-64
2023/03/20 11:21:14;;;;;;;40.30;20.30;;;;;;;;;;4977814;28;20182;-65
2023/03/20 11:23:40;;;;;;;45.17;21.08;;;;;;;;;;4992189;28;20442;-64
2023/03/20 11:26:13;;;;;;;39.78;21.77;;;;;;;;;;4991857;28;20052;-64
2023/03/20 11:28:40;;;;;;;44.22;20.98;;;;;;;;;;4991598;28;20071;-63
2023/03/20 11:31:05;;;;;;;39.95;20.45;;;;;;;;;;4973507;28;20041;-63
2023/03/20 11:33:32;;;;;;;45.25;22.60;;;;;;;;;;4968032;28;20056;-64
2023/03/20 11:35:58;;;;;;;43.10;20.92;;;;;;;;;;4992463;28;20037;-63
2023/03/20 11:38:28;;;;;;;37.55;20.38;;;;;;;;;;4993488;28;20655;-63
2023/03/20 11:40:58;;;;;;;39.30;20.98;;;;;;;;;;4987517;28;20065;-63
2023/03/20 11:43:36;;;;;;;35.25;19.85;;;;;;;;;;4989216;28;20041;-65
2023/03/20 11:46:03;;;;;;;37.67;19.83;;;;;;;;;;4992442;28;20540;-64
2023/03/20 11:48:38;;;;;;;37.08;20.02;;;;;;;;;;4974898;28;20399;-64
2023/03/20 11:51:07;;;;;;;38.00;20.02;;;;;;;;;;4991993;28;20045;-63
2023/03/20 11:53:34;;;;;;;38.63;20.30;;;;;;;;;;4991107;28;20037;-63
2023/03/20 11:56:00;;;;;;;38.22;20.40;;;;;;;;;;4990494;28;20033;-64
2023/03/20 11:58:26;;;;;;;34.92;19.38;;;;;;;;;;4988703;28;20045;-63
2023/03/20 12:00:53;;;;;;;34.17;19.13;;;;;;;;;;4965608;28;20045;-64
2023/03/20 12:03:37;;;;;;;30.30;18.52;;;;;;;;;;4992439;28;20073;-63
2023/03/20 12:06:05;;;;;;;32.88;18.25;;;;;;;;;;4992481;28;20053;-63
2023/03/20 12:08:31;;;;;;;41.28;17.88;;;;;;;;;;4993354;28;20613;-66
2023/03/20 12:11:01;;;;;;;31.75;14.88;;;;;;;;;;4998356;28;20616;-65
2023/03/20 12:13:32;;;;;;;31.08;15.25;;;;;;;;;;4993225;28;20065;-63
2023/03/20 12:16:03;;;;;;;26.85;14.10;;;;;;;;;;4995352;28;20144;-63
2023/03/20 12:18:33;;;;;;;28.05;16.10;;;;;;;;;;4993956;28;20580;-64
2023/03/20 12:21:11;;;;;;;28.67;13.40;;;;;;;;;;4997420;28;20049;-61
2023/03/20 12:23:42;;;;;;;25.38;13.48;;;;;;;;;;4994118;28;20037;-62
2023/03/20 12:26:16;;;;;;;31.02;13.40;;;;;;;;;;4996147;28;20240;-63
2023/03/20 12:28:55;;;;;;;30.77;13.80;;;;;;;;;;4995121;28;20042;-62
2023/03/20 12:31:39;;;;;;;26.85;12.82;;;;;;;;;;4976454;28;20126;-63
2023/03/20 12:34:21;;;;;;;27.00;12.65;;;;;;;;;;4994750;28;20045;-64
2023/03/20 12:36:47;;;;;;;;;;;;;;;;;;4996345;28;20037;-63
2023/03/20 12:39:28;;;;;;;23.58;11.73;;;;;;;;;;4998255;28;20366;-68
2023/03/20 12:42:13;;;;;;;25.35;12.18;;;;;;;;;;4987897;28;20478;-63
2023/03/20 12:44:46;;;;;;;24.17;11.95;;;;;;;;;;4991563;28;20095;-64
2023/03/20 12:47:31;;;;;;;30.20;12.38;;;;;;;;;;4998314;28;20111;-65
2023/03/20 12:50:00;;;;;;;32.20;11.95;;;;;;;;;;4995061;28;20064;-66
2023/03/20 12:52:45;;;;;;;27.98;12.68;;;;;;;;;;4996576;28;20231;-66
2023/03/20 12:55:21;;;;;;;37.22;12.90;;;;;;;;;;4993825;28;20041;-63
2023/03/20 12:57:53;;;;;;;38.17;13.48;;;;;;;;;;4992732;28;20642;-64
2023/03/20 13:00:26;;;;;;;31.30;12.57;;;;;;;;;;4995459;28;20048;-64
2023/03/20 13:03:05;;;;;;;33.55;13.30;;;;;;;;;;4997706;28;21017;-65
2023/03/20 13:05:49;;;;;;;30.20;13.57;;;;;;;;;;4997348;28;20045;-65
2023/03/20 13:08:17;;;;;;;39.75;14.10;;;;;;;;;;4997115;28;20190;-64
2023/03/20 13:11:03;;;;;;;36.35;12.35;;;;;;;;;;4996757;28;20042;-63
2023/03/20 13:13:50;;;;;;;40.38;13.63;;;;;;;;;;4996383;28;20052;-65
2023/03/20 13:16:21;;;;;;;39.08;12.60;;;;;;;;;;5011738;28;20807;-64
2023/03/20 13:18:57;;;;;;;38.90;13.52;;;;;;;;;;4977186;28;20473;-63
2023/03/20 13:21:26;;;;;;;31.35;12.52;;;;;;;;;;4998188;28;20701;-65
2023/03/20 13:24:06;;;;;;;32.75;12.32;;;;;;;;;;4998852;28;20052;-64
2023/03/20 13:26:38;;;;;;;41.28;12.50;;;;;;;;;;4998597;28;20041;-66
2023/03/20 13:29:03;;;;;;;;;;;;;;;;;;4999595;28;20044;-63
2023/03/20 13:31:50;;;;;;;36.85;12.50;;;;;;;;;;4997259;28;20335;-65
2023/03/20 13:34:24;;;;;;;31.17;12.10;;;;;;;;;;4997319;28;20038;-65
2023/03/20 13:37:11;;;;;;;41.40;14.23;;;;;;;;;;4995364;28;20111;-64
2023/03/20 13:39:47;;;;;;;45.75;12.75;;;;;;;;;;4995791;28;20057;-64
2023/03/20 13:42:16;;;;;;;41.08;15.00;;;;;;;;;;4992893;28;20038;-65
2023/03/20 13:44:42;;;;;;;52.10;14.77;;;;;;;;;;4969818;28;20050;-65
2023/03/20 13:47:10;;;;;;;39.30;14.68;;;;;;;;;;4968992;28;20093;-66
2023/03/20 13:49:37;;;;;;;42.63;14.45;;;;;;;;;;4960366;28;20069;-64
2023/03/20 13:52:08;;;;;;;48.03;14.70;;;;;;;;;;4992632;28;20042;-63
2023/03/20 13:54:40;;;;;;;38.78;15.43;;;;;;;;;;4992266;28;20637;-65
2023/03/20 13:57:25;;;;;;;49.38;14.80;;;;;;;;;;4994917;28;20112;-65
2023/03/20 13:59:59;;;;;;;52.63;14.60;;;;;;;;;;4994415;28;20060;-63
2023/03/20 14:02:39;;;;;;;49.33;15.73;;;;;;;;;;4993923;28;20123;-64
2023/03/20 14:05:15;;;;;;;55.58;15.00;;;;;;;;;;4978156;28;20042;-64
2023/03/20 14:07:44;;;;;;;47.60;15.57;;;;;;;;;;4993005;28;20087;-63
2023/03/20 14:10:21;;;;;;;53.72;16.85;;;;;;;;;;4992545;28;20077;-64
2023/03/20 14:12:53;;;;;;;50.45;16.80;;;;;;;;;;4994160;28;20061;-62
2023/03/20 14:15:19;;;;;;;54.67;16.70;;;;;;;;;;4987450;28;20374;-63
2023/03/20 14:17:47;;;;;;;57.63;18.10;;;;;;;;;;4993342;28;20419;-66
2023/03/20 14:20:19;;;;;;;57.88;16.65;;;;;;;;;;4994445;28;20042;-65
2023/03/20 14:22:47;;;;;;;55.15;15.60;;;;;;;;;;4993907;28;20728;-65
2023/03/20 14:25:23;;;;;;;72.20;17.17;;;;;;;;;;4990470;28;20475;-67
2023/03/20 14:27:52;;;;;;;50.13;15.68;;;;;;;;;;4983037;28;20052;-66
2023/03/20 14:30:36;;;;;;;65.55;16.77;;;;;;;;;;4999018;28;20324;-66
2023/03/20 14:33:04;;;;;;;57.92;16.13;;;;;;;;;;4991183;28;20379;-65
2023/03/20 14:35:37;;;;;;;61.75;16.02;;;;;;;;;;4999437;28;20591;-64